createdAt,value
2022-07-30T00:00:07.049Z,99247.28
2022-07-30T00:02:10.089Z,99243.31
2022-07-30T00:04:12.618Z,99240.13
2022-07-30T00:06:15.117Z,99236.16
2022-07-30T00:08:17.678Z,99246.50
2022-07-30T00:10:20.830Z,99245.72
2022-07-30T00:12:23.388Z,99246.13
2022-07-30T00:14:26.645Z,99247.72
2022-07-30T00:16:29.319Z,99246.91
2022-07-30T00:18:31.952Z,99238.16
2022-07-30T00:20:34.782Z,99251.31
2022-07-30T00:22:37.675Z,99237.38
2022-07-30T00:24:40.264Z,99242.94
2022-07-30T00:26:42.902Z,99240.94
2022-07-30T00:28:45.542Z,99235.00
2022-07-30T00:30:48.175Z,99232.59
2022-07-30T00:32:57.545Z,99240.94
2022-07-30T00:35:00.111Z,99225.03
2022-07-30T00:37:03.322Z,99233.00
2022-07-30T00:39:06.496Z,99223.00
2022-07-30T00:41:09.048Z,99219.47
2022-07-30T00:43:16.281Z,99225.03
2022-07-30T00:45:19.055Z,99229.38
2022-07-30T00:47:21.718Z,99220.22
2022-07-30T00:49:24.996Z,99217.81
2022-07-30T00:51:27.588Z,99220.22
2022-07-30T00:53:30.221Z,99214.66
2022-07-30T00:55:33.509Z,99222.59
2022-07-30T00:57:36.170Z,99226.22
2022-07-30T00:59:38.833Z,99225.81
2022-07-30T01:01:41.519Z,99219.84
2022-07-30T01:03:44.029Z,99224.22
2022-07-30T01:05:47.036Z,99225.00
2022-07-30T01:07:49.636Z,99221.81
2022-07-30T01:09:52.173Z,99220.22
2022-07-30T01:11:55.507Z,99218.22
2022-07-30T01:13:58.091Z,99220.63
2022-07-30T01:16:00.819Z,99212.25
2022-07-30T01:18:07.270Z,99215.41
2022-07-30T01:20:18.669Z,99220.97
2022-07-30T01:22:30.503Z,99211.41
2022-07-30T01:24:38.838Z,99212.59
2022-07-30T01:26:41.542Z,99204.19
2022-07-30T01:28:49.157Z,99206.56
2022-07-30T01:30:53.168Z,99204.97
2022-07-30T01:32:56.623Z,99200.56
2022-07-30T01:34:59.863Z,99200.97
2022-07-30T01:37:04.225Z,99199.78
2022-07-30T01:39:07.046Z,99202.56
2022-07-30T01:41:09.870Z,99200.97
2022-07-30T01:43:13.104Z,99202.97
2022-07-30T01:45:16.135Z,99208.13
2022-07-30T01:47:20.081Z,99203.34
2022-07-30T01:49:24.375Z,99205.34
2022-07-30T01:51:33.338Z,99212.50
2022-07-30T01:53:41.841Z,99203.34
2022-07-30T01:55:44.730Z,99199.38
2022-07-30T01:57:49.210Z,99199.78
2022-07-30T01:59:55.119Z,99198.94
2022-07-30T02:01:57.405Z,99197.75
2022-07-30T02:04:00.706Z,99199.72
2022-07-30T02:06:09.494Z,99199.72
2022-07-30T02:08:24.637Z,99203.69
2022-07-30T02:10:26.864Z,99201.69
2022-07-30T02:12:30.869Z,99199.66
2022-07-30T02:14:55.401Z,99197.25
2022-07-30T02:16:59.624Z,99200.00
2022-07-30T02:19:14.376Z,99204.78
2022-07-30T02:21:18.447Z,99207.97
2022-07-30T02:23:21.772Z,99205.97
2022-07-30T02:25:24.194Z,99203.19
2022-07-30T02:27:28.771Z,99212.72
2022-07-30T02:29:34.910Z,99202.00
2022-07-30T02:31:38.723Z,99205.94
2022-07-30T02:33:48.762Z,99209.94
2022-07-30T02:35:52.490Z,99205.16
2022-07-30T02:37:54.943Z,99203.56
2022-07-30T02:39:57.568Z,99202.00
2022-07-30T02:41:59.862Z,99209.19
2022-07-30T02:44:03.110Z,99202.03
2022-07-30T02:46:06.323Z,99205.22
2022-07-30T02:48:10.537Z,99202.44
2022-07-30T02:50:13.011Z,99209.28
2022-07-30T02:52:16.199Z,99200.91
2022-07-30T02:54:19.620Z,99204.53
2022-07-30T02:56:22.950Z,99206.97
2022-07-30T02:58:26.125Z,99205.38
2022-07-30T03:00:30.660Z,99211.78
2022-07-30T03:02:33.896Z,99202.22
2022-07-30T03:04:36.634Z,99204.25
2022-07-30T03:06:40.535Z,99204.66
2022-07-30T03:08:44.464Z,99203.88
2022-07-30T03:10:47.582Z,99203.91
2022-07-30T03:12:50.569Z,99202.34
2022-07-30T03:14:53.086Z,99203.94
2022-07-30T03:16:57.133Z,99202.00
2022-07-30T03:19:02.596Z,99200.38
2022-07-30T03:21:08.377Z,99196.81
2022-07-30T03:23:11.709Z,99197.22
2022-07-30T03:25:16.569Z,99194.81
2022-07-30T03:27:19.503Z,99200.38
2022-07-30T03:29:22.642Z,99194.41
2022-07-30T03:31:25.066Z,99201.59
2022-07-30T03:33:38.566Z,99197.59
2022-07-30T03:35:42.927Z,99194.03
2022-07-30T03:37:46.471Z,99199.59
2022-07-30T03:39:48.838Z,99201.22
2022-07-30T03:41:51.606Z,99202.38
2022-07-30T03:43:53.999Z,99209.56
2022-07-30T03:45:57.080Z,99211.56
2022-07-30T03:47:59.558Z,99216.38
2022-07-30T03:50:01.943Z,99208.78
2022-07-30T03:52:06.079Z,99209.16
2022-07-30T03:54:13.522Z,99209.56
2022-07-30T03:56:16.234Z,99197.16
2022-07-30T03:58:19.001Z,99205.13
2022-07-30T04:00:21.360Z,99205.94
2022-07-30T04:02:23.726Z,99200.34
2022-07-30T04:04:26.306Z,99203.91
2022-07-30T04:06:28.604Z,99208.69
2022-07-30T04:08:31.034Z,99207.88
2022-07-30T04:10:33.393Z,99204.22
2022-07-30T04:12:35.816Z,99200.19
2022-07-30T04:14:42.351Z,99210.13
2022-07-30T04:16:47.881Z,99202.53
2022-07-30T04:18:55.045Z,99202.53
2022-07-30T04:20:58.373Z,99200.91
2022-07-30T04:23:01.271Z,99203.28
2022-07-30T04:25:05.184Z,99206.47
2022-07-30T04:27:07.523Z,99207.25
2022-07-30T04:29:13.841Z,99210.03
2022-07-30T04:31:20.726Z,99210.03
2022-07-30T04:33:23.093Z,99217.22
2022-07-30T04:35:50.787Z,99213.94
2022-07-30T04:37:51.596Z,99212.31
2022-07-30T04:39:55.148Z,99216.28
2022-07-30T04:41:57.422Z,99213.47
2022-07-30T04:43:59.710Z,99201.84
2022-07-30T04:46:02.210Z,99211.47
2022-07-30T04:48:04.581Z,99211.06
2022-07-30T04:50:07.717Z,99217.50
2022-07-30T04:52:10.828Z,99207.53
2022-07-30T04:54:16.144Z,99210.72
2022-07-30T04:56:19.727Z,99212.69
2022-07-30T04:58:22.466Z,99216.69
2022-07-30T05:00:24.782Z,99220.66
2022-07-30T05:02:29.574Z,99209.41
2022-07-30T05:04:33.385Z,99215.72
2022-07-30T05:06:36.827Z,99217.28
2022-07-30T05:08:40.044Z,99217.22
2022-07-30T05:10:43.318Z,99222.38
2022-07-30T05:12:45.594Z,99221.16
2022-07-30T05:14:48.385Z,99222.28
2022-07-30T05:16:50.968Z,99220.66
2022-07-30T05:18:53.242Z,99225.03
2022-07-30T05:20:55.518Z,99226.53
2022-07-30T05:22:57.829Z,99222.00
2022-07-30T05:25:00.240Z,99227.53
2022-07-30T05:27:02.926Z,99227.06
2022-07-30T05:29:07.165Z,99231.81
2022-07-30T05:31:10.457Z,99230.59
2022-07-30T05:33:15.837Z,99224.50
2022-07-30T05:35:18.358Z,99233.25
2022-07-30T05:37:20.683Z,99231.91
2022-07-30T05:39:23.031Z,99223.31
2022-07-30T05:41:32.822Z,99222.38
2022-07-30T05:43:35.498Z,99221.16
2022-07-30T05:45:37.842Z,99219.84
2022-07-30T05:47:40.127Z,99217.13
2022-07-30T05:49:42.554Z,99218.94
2022-07-30T05:51:50.483Z,99223.63
2022-07-30T05:53:52.856Z,99225.13
2022-07-30T05:55:55.114Z,99221.44
2022-07-30T05:57:57.389Z,99223.72
2022-07-30T06:00:00.988Z,99222.50
2022-07-30T06:02:03.871Z,99230.97
2022-07-30T06:04:06.274Z,99227.31
2022-07-30T06:06:08.573Z,99226.34
2022-07-30T06:08:11.134Z,99230.69
2022-07-30T06:10:13.532Z,99223.38
2022-07-30T06:12:15.919Z,99229.84
2022-07-30T06:14:18.266Z,99227.09
2022-07-30T06:16:20.603Z,99227.09
2022-07-30T06:18:23.296Z,99224.91
2022-07-30T06:20:25.828Z,99217.03
2022-07-30T06:22:28.143Z,99222.34
2022-07-30T06:24:30.405Z,99224.78
2022-07-30T06:26:32.667Z,99218.44
2022-07-30T06:28:39.160Z,99226.13
2022-07-30T06:30:41.997Z,99220.00
2022-07-30T06:32:45.818Z,99226.63
2022-07-30T06:34:59.713Z,99225.41
2022-07-30T06:37:06.107Z,99225.28
2022-07-30T06:39:08.536Z,99229.66
2022-07-30T06:41:11.183Z,99232.06
2022-07-30T06:43:13.528Z,99222.25
2022-07-30T06:45:15.815Z,99223.66
2022-07-30T06:47:26.343Z,99230.34
2022-07-30T06:49:31.300Z,99226.34
2022-07-30T06:51:33.688Z,99231.09
2022-07-30T06:53:42.502Z,99232.97
2022-07-30T06:55:45.279Z,99232.97
2022-07-30T06:57:47.500Z,99232.84
2022-07-30T06:59:56.089Z,99234.72
2022-07-30T07:01:59.883Z,99239.19
2022-07-30T07:04:03.818Z,99234.72
2022-07-30T07:06:06.279Z,99230.91
2022-07-30T07:08:08.734Z,99230.22
2022-07-30T07:10:11.221Z,99224.06
2022-07-30T07:12:13.636Z,99229.81
2022-07-30T07:14:15.949Z,99229.00
2022-07-30T07:16:21.949Z,99232.28
2022-07-30T07:18:24.325Z,99235.84
2022-07-30T07:20:26.597Z,99227.97
2022-07-30T07:22:29.302Z,99230.69
2022-07-30T07:24:31.660Z,99235.91
2022-07-30T07:26:33.999Z,99238.53
2022-07-30T07:28:36.561Z,99235.63
2022-07-30T07:30:39.064Z,99233.34
2022-07-30T07:32:41.399Z,99226.19
2022-07-30T07:34:43.698Z,99231.66
2022-07-30T07:36:45.970Z,99229.53
2022-07-30T07:38:48.333Z,99226.56
2022-07-30T07:40:50.786Z,99225.06
2022-07-30T07:42:53.333Z,99226.03
2022-07-30T07:44:55.693Z,99229.91
2022-07-30T07:46:58.044Z,99227.69
2022-07-30T07:49:00.809Z,99228.66
2022-07-30T07:51:03.593Z,99225.84
2022-07-30T07:53:13.178Z,99221.81
2022-07-30T07:55:15.588Z,99218.53
2022-07-30T07:57:18.535Z,99229.38
2022-07-30T07:59:23.190Z,99220.47
2022-07-30T08:01:34.632Z,99219.06
2022-07-30T08:03:36.937Z,99219.00
2022-07-30T08:06:01.039Z,99217.56
2022-07-30T08:08:01.611Z,99219.66
2022-07-30T08:10:04.299Z,99215.88
2022-07-30T08:12:06.682Z,99215.97
2022-07-30T08:14:08.939Z,99219.06
2022-07-30T08:16:12.607Z,99214.03
2022-07-30T08:18:15.169Z,99207.44
2022-07-30T08:20:17.514Z,99211.22
2022-07-30T08:22:19.890Z,99215.00
2022-07-30T08:24:24.141Z,99211.75
2022-07-30T08:26:26.465Z,99216.22
2022-07-30T08:28:35.912Z,99210.78
2022-07-30T08:30:38.948Z,99217.91
2022-07-30T08:32:41.267Z,99213.53
2022-07-30T08:34:43.855Z,99211.22
2022-07-30T08:36:46.147Z,99218.44
2022-07-30T08:38:48.523Z,99227.25
2022-07-30T08:40:51.062Z,99219.59
2022-07-30T08:42:53.926Z,99214.00
2022-07-30T08:44:56.434Z,99212.06
2022-07-30T08:47:00.064Z,99213.56
2022-07-30T08:49:06.461Z,99214.78
2022-07-30T08:51:11.937Z,99218.09
2022-07-30T08:53:14.520Z,99212.34
2022-07-30T08:55:17.031Z,99214.59
2022-07-30T08:57:19.616Z,99216.00
2022-07-30T08:59:23.922Z,99212.13
2022-07-30T09:01:26.322Z,99218.53
2022-07-30T09:03:28.913Z,99211.63
2022-07-30T09:05:31.392Z,99206.38
2022-07-30T09:07:34.468Z,99204.53
2022-07-30T09:09:36.759Z,99201.09
2022-07-30T09:11:39.139Z,99206.88
2022-07-30T09:13:42.571Z,99207.19
2022-07-30T09:15:44.865Z,99208.34
2022-07-30T09:17:48.344Z,99204.41
2022-07-30T09:20:04.371Z,99201.59
2022-07-30T09:22:07.109Z,99197.63
2022-07-30T09:24:11.551Z,99200.69
2022-07-30T09:26:14.195Z,99198.41
2022-07-30T09:28:17.161Z,99194.34
2022-07-30T09:30:19.537Z,99201.91
2022-07-30T09:32:21.828Z,99193.38
2022-07-30T09:34:25.210Z,99195.63
2022-07-30T09:36:31.455Z,99194.75
2022-07-30T09:38:42.800Z,99185.38
2022-07-30T09:40:50.632Z,99189.09
2022-07-30T09:43:04.491Z,99186.84
2022-07-30T09:45:07.568Z,99185.84
2022-07-30T09:47:09.889Z,99185.84
2022-07-30T09:49:22.991Z,99183.09
2022-07-30T09:51:56.745Z,99182.34
2022-07-30T09:54:00.101Z,99193.78
2022-07-30T09:56:22.856Z,99180.91
2022-07-30T09:58:40.385Z,99187.91
2022-07-30T10:00:48.785Z,99190.50
2022-07-30T10:02:52.012Z,99199.50
2022-07-30T10:04:54.520Z,99188.28
2022-07-30T10:06:57.606Z,99194.31
2022-07-30T10:08:59.890Z,99188.75
2022-07-30T10:11:05.168Z,99189.78
2022-07-30T10:13:15.987Z,99196.91
2022-07-30T10:15:21.848Z,99198.25
2022-07-30T10:17:25.251Z,99198.22
2022-07-30T10:19:40.048Z,99197.31
2022-07-30T10:21:44.479Z,99208.97
2022-07-30T10:23:49.254Z,99201.50
2022-07-30T10:25:56.266Z,99200.41
2022-07-30T10:28:00.258Z,99193.94
2022-07-30T10:30:05.890Z,99196.50
2022-07-30T10:32:09.514Z,99198.53
2022-07-30T10:34:15.527Z,99190.72
2022-07-30T10:36:18.058Z,99193.75
2022-07-30T10:38:22.283Z,99200.66
2022-07-30T10:40:31.042Z,99198.09
2022-07-30T10:42:33.362Z,99202.91
2022-07-30T10:44:35.643Z,99198.81
2022-07-30T10:46:49.806Z,99201.56
2022-07-30T10:48:52.210Z,99207.75
2022-07-30T10:50:55.673Z,99198.75
2022-07-30T10:53:01.441Z,99209.63
2022-07-30T10:55:12.490Z,99193.75
2022-07-30T10:57:32.108Z,99197.72
2022-07-30T10:59:59.861Z,99192.28
2022-07-30T11:02:09.413Z,99190.25
2022-07-30T11:04:22.367Z,99195.34
2022-07-30T11:06:28.467Z,99199.28
2022-07-30T11:08:42.647Z,99195.50
2022-07-30T11:10:45.549Z,99205.13
2022-07-30T11:12:52.763Z,99192.56
2022-07-30T11:14:55.705Z,99193.41
2022-07-30T11:16:59.027Z,99188.19
2022-07-30T11:19:55.086Z,99191.63
2022-07-30T11:21:26.568Z,99187.94
2022-07-30T11:23:39.033Z,99197.81
2022-07-30T11:25:50.982Z,99194.91
2022-07-30T11:27:54.642Z,99193.91
2022-07-30T11:29:57.323Z,99195.00
2022-07-30T11:32:19.563Z,99196.94
2022-07-30T11:34:25.678Z,99189.00
2022-07-30T11:36:29.516Z,99189.97
2022-07-30T11:38:50.781Z,99188.66
2022-07-30T11:40:54.948Z,99189.59
2022-07-30T11:43:35.022Z,99187.00
2022-07-30T11:45:39.381Z,99175.13
2022-07-30T11:47:47.753Z,99187.56
2022-07-30T11:49:50.119Z,99188.66
2022-07-30T11:51:52.535Z,99180.66
2022-07-30T11:54:04.884Z,99190.63
2022-07-30T11:56:07.419Z,99185.72
2022-07-30T11:58:10.911Z,99191.16
2022-07-30T12:00:13.464Z,99184.13
2022-07-30T12:02:15.825Z,99186.19
2022-07-30T12:04:18.205Z,99182.25
2022-07-30T12:06:20.900Z,99178.66
2022-07-30T12:08:32.795Z,99190.06
2022-07-30T12:10:41.466Z,99189.06
2022-07-30T12:12:44.271Z,99200.75
2022-07-30T12:14:46.568Z,99192.19
2022-07-30T12:16:50.207Z,99189.00
2022-07-30T12:18:53.875Z,99188.50
2022-07-30T12:21:02.992Z,99185.91
2022-07-30T12:23:15.066Z,99184.44
2022-07-30T12:25:24.174Z,99180.63
2022-07-30T12:27:26.810Z,99188.19
2022-07-30T12:29:29.239Z,99183.81
2022-07-30T12:31:33.860Z,99186.00
2022-07-30T12:33:42.132Z,99176.44
2022-07-30T12:35:49.511Z,99182.69
2022-07-30T12:38:10.414Z,99182.47
2022-07-30T12:40:15.095Z,99183.44
2022-07-30T12:42:19.089Z,99176.97
2022-07-30T12:44:36.830Z,99176.97
2022-07-30T12:46:41.217Z,99179.56
2022-07-30T12:48:50.693Z,99169.63
2022-07-30T12:51:04.309Z,99174.16
2022-07-30T12:53:09.504Z,99177.00
2022-07-30T12:55:12.839Z,99167.06
2022-07-30T12:57:15.176Z,99172.72
2022-07-30T12:59:22.069Z,99164.31
2022-07-30T13:01:44.023Z,99164.81
2022-07-30T13:03:46.771Z,99160.59
2022-07-30T13:05:50.444Z,99155.16
2022-07-30T13:08:00.329Z,99155.75
2022-07-30T13:10:09.099Z,99150.66
2022-07-30T13:12:12.502Z,99155.31
2022-07-30T13:14:17.163Z,99154.09
2022-07-30T13:16:20.103Z,99157.81
2022-07-30T13:18:22.402Z,99158.06
2022-07-30T13:20:24.835Z,99160.19
2022-07-30T13:22:27.218Z,99160.31
2022-07-30T13:24:29.694Z,99163.47
2022-07-30T13:26:32.324Z,99167.31
2022-07-30T13:28:35.492Z,99172.97
2022-07-30T13:30:37.965Z,99165.59
2022-07-30T13:32:40.532Z,99163.75
2022-07-30T13:34:43.624Z,99164.59
2022-07-30T13:36:46.099Z,99156.00
2022-07-30T13:38:52.382Z,99169.16
2022-07-30T13:40:59.054Z,99177.06
2022-07-30T13:43:04.688Z,99170.81
2022-07-30T13:45:07.575Z,99175.06
2022-07-30T13:47:10.034Z,99180.91
2022-07-30T13:49:13.333Z,99178.63
2022-07-30T13:51:16.778Z,99188.56
2022-07-30T13:53:19.062Z,99185.41
2022-07-30T13:55:21.419Z,99200.63
2022-07-30T13:57:24.025Z,99200.13
2022-07-30T13:59:26.697Z,99207.63
2022-07-30T14:01:29.533Z,99200.75
2022-07-30T14:03:31.928Z,99188.16
2022-07-30T14:05:36.136Z,99193.72
2022-07-30T14:07:44.814Z,99203.38
2022-07-30T14:09:51.408Z,99200.28
2022-07-30T14:11:56.397Z,99213.31
2022-07-30T14:13:58.663Z,99222.03
2022-07-30T14:16:00.946Z,99223.03
2022-07-30T14:18:06.176Z,99228.44
2022-07-30T14:20:08.700Z,99229.66
2022-07-30T14:22:11.085Z,99239.94
2022-07-30T14:24:16.451Z,99240.94
2022-07-30T14:26:18.800Z,99245.47
2022-07-30T14:28:21.109Z,99247.97
2022-07-30T14:30:24.804Z,99247.28
2022-07-30T14:32:32.362Z,99244.13
2022-07-30T14:34:35.270Z,99239.75
2022-07-30T14:36:37.794Z,99235.03
2022-07-30T14:38:40.123Z,99231.88
2022-07-30T14:40:42.447Z,99233.91
2022-07-30T14:42:44.751Z,99241.47
2022-07-30T14:44:48.482Z,99240.22
2022-07-30T14:46:52.171Z,99234.69
2022-07-30T14:48:55.172Z,99228.31
2022-07-30T14:51:14.337Z,99235.13
2022-07-30T14:53:22.385Z,99238.75
2022-07-30T14:55:25.382Z,99233.47
2022-07-30T14:57:27.657Z,99233.84
2022-07-30T15:00:09.793Z,99224.81
2022-07-30T15:02:13.616Z,99224.03
2022-07-30T15:04:16.438Z,99221.19
2022-07-30T15:06:18.983Z,99222.34
2022-07-30T15:08:21.861Z,99231.88
2022-07-30T15:10:24.838Z,99229.41
2022-07-30T15:12:27.915Z,99229.38
2022-07-30T15:14:30.784Z,99216.56
2022-07-30T15:16:33.561Z,99216.16
2022-07-30T15:18:36.072Z,99220.50
2022-07-30T15:20:38.644Z,99211.22
2022-07-30T15:22:41.360Z,99210.88
2022-07-30T15:24:43.890Z,99209.66
2022-07-30T15:26:47.147Z,99205.31
2022-07-30T15:28:49.812Z,99195.66
2022-07-30T15:30:52.352Z,99199.66
2022-07-30T15:32:54.888Z,99191.28
2022-07-30T15:34:58.968Z,99191.69
2022-07-30T15:37:02.849Z,99192.53
2022-07-30T15:39:06.768Z,99192.91
2022-07-30T15:41:13.440Z,99195.31
2022-07-30T15:43:16.554Z,99193.00
2022-07-30T15:45:20.348Z,99190.94
2022-07-30T15:47:23.272Z,99187.31
2022-07-30T15:49:26.968Z,99187.41
2022-07-30T15:51:31.659Z,99179.94
2022-07-30T15:53:34.255Z,99183.91
2022-07-30T15:55:47.053Z,99186.00
2022-07-30T15:57:50.437Z,99184.44
2022-07-30T15:59:53.614Z,99177.41
2022-07-30T16:01:56.491Z,99175.91
2022-07-30T16:03:59.051Z,99175.25
2022-07-30T16:06:01.697Z,99182.63
2022-07-30T16:08:04.355Z,99177.53
2022-07-30T16:10:07.330Z,99174.44
2022-07-30T16:12:09.961Z,99180.38
2022-07-30T16:14:12.622Z,99172.03
2022-07-30T16:16:15.794Z,99170.09
2022-07-30T16:18:18.375Z,99179.75
2022-07-30T16:20:21.139Z,99176.19
2022-07-30T16:22:24.323Z,99187.38
2022-07-30T16:24:27.091Z,99183.38
2022-07-30T16:26:30.923Z,99191.38
2022-07-30T16:28:33.472Z,99187.00
2022-07-30T16:30:50.718Z,99185.44
2022-07-30T16:33:00.175Z,99189.50
2022-07-30T16:35:02.805Z,99192.72
2022-07-30T16:37:06.507Z,99194.31
2022-07-30T16:39:09.435Z,99201.94
2022-07-30T16:41:13.573Z,99196.78
2022-07-30T16:43:19.543Z,99197.63
2022-07-30T16:45:22.963Z,99200.03
2022-07-30T16:47:25.559Z,99195.66
2022-07-30T16:49:28.797Z,99195.69
2022-07-30T16:51:31.903Z,99201.69
2022-07-30T16:53:34.617Z,99196.13
2022-07-30T16:55:37.251Z,99196.94
2022-07-30T16:57:39.830Z,99191.38
2022-07-30T16:59:43.745Z,99194.16
2022-07-30T17:01:47.529Z,99200.56
2022-07-30T17:03:50.123Z,99207.38
2022-07-30T17:05:53.739Z,99206.97
2022-07-30T17:07:56.643Z,99202.97
2022-07-30T17:09:59.255Z,99202.16
2022-07-30T17:12:02.067Z,99194.56
2022-07-30T17:14:06.518Z,99204.94
2022-07-30T17:16:09.529Z,99207.31
2022-07-30T17:18:12.510Z,99208.53
2022-07-30T17:20:15.646Z,99210.56
2022-07-30T17:22:18.408Z,99213.78
2022-07-30T17:24:21.252Z,99223.34
2022-07-30T17:26:23.903Z,99218.16
2022-07-30T17:28:27.005Z,99218.16
2022-07-30T17:30:30.533Z,99218.59
2022-07-30T17:32:33.319Z,99214.56
2022-07-30T17:34:35.932Z,99211.78
2022-07-30T17:36:39.535Z,99212.97
2022-07-30T17:38:42.307Z,99213.00
2022-07-30T17:40:44.987Z,99216.56
2022-07-30T17:42:47.728Z,99213.38
2022-07-30T17:44:50.391Z,99225.00
2022-07-30T17:46:53.627Z,99213.84
2022-07-30T17:48:56.262Z,99216.25
2022-07-30T17:50:58.892Z,99219.44
2022-07-30T17:53:06.196Z,99218.22
2022-07-30T17:55:11.406Z,99213.88
2022-07-30T17:57:15.453Z,99216.25
2022-07-30T17:59:18.141Z,99214.66
2022-07-30T18:01:20.920Z,99211.47
2022-07-30T18:03:23.615Z,99206.28
2022-07-30T18:05:27.611Z,99208.72
2022-07-30T18:07:30.453Z,99202.72
2022-07-30T18:09:39.634Z,99203.16
2022-07-30T18:11:43.183Z,99202.78
2022-07-30T18:13:45.882Z,99214.69
2022-07-30T18:15:48.990Z,99211.13
2022-07-30T18:17:51.665Z,99197.59
2022-07-30T18:19:54.346Z,99199.56
2022-07-30T18:21:57.524Z,99201.56
2022-07-30T18:24:00.222Z,99203.97
2022-07-30T18:26:03.047Z,99197.97
2022-07-30T18:28:06.004Z,99196.38
2022-07-30T18:30:09.162Z,99197.19
2022-07-30T18:32:11.860Z,99190.00
2022-07-30T18:34:14.632Z,99195.19
2022-07-30T18:36:17.227Z,99197.97
2022-07-30T18:38:20.062Z,99205.19
2022-07-30T18:40:24.233Z,99195.19
2022-07-30T18:42:27.184Z,99190.03
2022-07-30T18:44:29.833Z,99192.41
2022-07-30T18:46:32.457Z,99196.00
2022-07-30T18:48:35.959Z,99189.22
2022-07-30T18:50:38.762Z,99190.41
2022-07-30T18:52:41.753Z,99190.81
2022-07-30T18:54:44.318Z,99190.03
2022-07-30T18:56:46.978Z,99187.63
2022-07-30T18:58:49.560Z,99186.06
2022-07-30T19:00:52.182Z,99190.03
2022-07-30T19:02:54.893Z,99190.41
2022-07-30T19:04:58.606Z,99189.22
2022-07-30T19:07:01.350Z,99180.47
2022-07-30T19:11:07.341Z,99188.84
2022-07-30T19:13:10.157Z,99192.00
2022-07-30T19:15:14.274Z,99190.84
2022-07-30T19:17:16.907Z,99189.66
2022-07-30T19:19:20.091Z,99180.06
2022-07-30T19:21:22.963Z,99178.47
2022-07-30T19:23:25.536Z,99183.66
2022-07-30T19:25:29.657Z,99176.88
2022-07-30T19:27:32.267Z,99181.63
2022-07-30T19:29:34.818Z,99184.06
2022-07-30T19:31:37.506Z,99178.06
2022-07-30T19:33:41.419Z,99175.28
2022-07-30T19:35:44.099Z,99178.47
2022-07-30T19:37:47.132Z,99184.84
2022-07-30T19:40:05.355Z,99178.06
2022-07-30T19:42:09.320Z,99174.06
2022-07-30T19:44:18.563Z,99182.84
2022-07-30T19:46:21.642Z,99184.44
2022-07-30T19:48:29.262Z,99181.63
2022-07-30T19:50:35.839Z,99184.78
2022-07-30T19:52:40.571Z,99182.41
2022-07-30T19:54:54.191Z,99185.59
2022-07-30T19:56:56.734Z,99182.03
2022-07-30T19:59:00.594Z,99185.19
2022-07-30T20:01:17.331Z,99185.19
2022-07-30T20:03:25.561Z,99180.00
2022-07-30T20:05:31.950Z,99180.00
2022-07-30T20:07:54.476Z,99177.97
2022-07-30T20:09:58.440Z,99181.59
2022-07-30T20:12:02.378Z,99181.56
2022-07-30T20:14:05.602Z,99173.59
2022-07-30T20:16:12.231Z,99192.31
2022-07-30T20:18:14.913Z,99186.75
2022-07-30T20:20:17.577Z,99181.16
2022-07-30T20:22:29.204Z,99170.00
2022-07-30T20:24:32.299Z,99186.31
2022-07-30T20:26:35.002Z,99187.91
2022-07-30T20:28:37.556Z,99189.88
2022-07-30T20:30:40.304Z,99191.09
2022-07-30T20:32:46.909Z,99185.91
2022-07-30T20:34:49.669Z,99192.66
2022-07-30T20:36:52.242Z,99196.25
2022-07-30T20:38:56.615Z,99197.44
2022-07-30T20:40:59.142Z,99195.41
2022-07-30T20:43:06.171Z,99196.59
2022-07-30T20:45:11.004Z,99208.53
2022-07-30T20:47:37.592Z,99195.81
2022-07-30T20:49:41.243Z,99195.38
2022-07-30T20:51:45.029Z,99200.16
2022-07-30T20:53:52.932Z,99202.94
2022-07-30T20:55:55.492Z,99199.38
2022-07-30T20:58:08.903Z,99199.78
2022-07-30T21:00:20.202Z,99200.16
2022-07-30T21:04:46.502Z,99193.00
2022-07-30T21:06:50.479Z,99194.97
2022-07-30T21:08:53.188Z,99187.38
2022-07-30T21:10:57.858Z,99193.34
2022-07-30T21:13:07.663Z,99193.34
2022-07-30T21:15:15.772Z,99188.56
2022-07-30T21:17:26.433Z,99186.56
2022-07-30T21:19:31.024Z,99192.50
2022-07-30T21:23:59.041Z,99194.06
2022-07-30T21:26:07.097Z,99192.06
2022-07-30T21:28:18.457Z,99187.25
2022-07-30T21:30:31.286Z,99194.41
2022-07-30T21:32:35.427Z,99194.41
2022-07-30T21:34:40.435Z,99190.84
2022-07-30T21:36:44.882Z,99190.84
2022-07-30T21:38:47.526Z,99188.84
2022-07-30T21:40:50.393Z,99191.63
2022-07-30T21:42:52.934Z,99186.06
2022-07-30T21:44:55.525Z,99187.25
2022-07-30T21:46:58.162Z,99182.91
2022-07-30T21:49:00.826Z,99188.06
2022-07-30T21:51:03.934Z,99184.47
2022-07-30T21:53:06.497Z,99186.47
2022-07-30T21:55:13.221Z,99180.50
2022-07-30T21:57:26.447Z,99186.84
2022-07-30T21:59:29.467Z,99187.22
2022-07-30T22:01:33.072Z,99184.06
2022-07-30T22:04:03.680Z,99184.81
2022-07-30T22:06:04.385Z,99187.59
2022-07-30T22:08:08.917Z,99187.56
2022-07-30T22:10:13.043Z,99183.56
2022-07-30T22:12:25.917Z,99186.75
2022-07-30T22:14:31.726Z,99180.75
2022-07-30T22:16:34.458Z,99187.09
2022-07-30T22:18:37.127Z,99185.50
2022-07-30T22:20:41.824Z,99182.28
2022-07-30T22:22:44.778Z,99189.06
2022-07-30T22:24:48.100Z,99185.44
2022-07-30T22:26:51.010Z,99185.03
2022-07-30T22:28:54.282Z,99179.47
2022-07-30T22:30:57.240Z,99179.41
2022-07-30T22:33:20.139Z,99180.25
2022-07-30T22:35:32.352Z,99190.16
2022-07-30T22:37:36.744Z,99186.56
2022-07-30T22:39:50.574Z,99186.16
2022-07-30T22:41:54.852Z,99179.38
2022-07-30T22:43:57.720Z,99177.38
2022-07-30T22:46:01.071Z,99180.16
2022-07-30T22:48:10.282Z,99182.16
2022-07-30T22:50:14.894Z,99184.13
2022-07-30T22:52:21.968Z,99178.94
2022-07-30T22:54:29.247Z,99183.34
2022-07-30T22:56:32.429Z,99177.00
2022-07-30T22:58:35.040Z,99187.78
2022-07-30T23:00:37.620Z,99192.13
2022-07-30T23:02:43.016Z,99187.34
2022-07-30T23:04:45.622Z,99185.41
2022-07-30T23:06:48.601Z,99185.03
2022-07-30T23:08:51.167Z,99192.59
2022-07-30T23:10:53.987Z,99186.22
2022-07-30T23:12:26.729Z,99198.56
2022-07-30T23:12:27.128Z,99190.88
2022-07-30T23:12:56.921Z,99191.38
2022-07-30T23:14:59.725Z,99198.16
2022-07-30T23:17:02.490Z,99204.91
2022-07-30T23:19:06.783Z,99206.88
2022-07-30T23:21:10.115Z,99195.75
2022-07-30T23:23:12.704Z,99195.38
2022-07-30T23:25:15.790Z,99192.97
2022-07-30T23:27:18.459Z,99204.47
2022-07-30T23:29:21.079Z,99200.91
2022-07-30T23:31:26.790Z,99205.69
2022-07-30T23:33:30.785Z,99197.31
2022-07-30T23:35:33.360Z,99200.13
2022-07-30T23:37:47.619Z,99196.91
2022-07-30T23:39:51.561Z,99204.47
2022-07-30T23:41:54.247Z,99197.72
2022-07-30T23:43:56.838Z,99202.06
2022-07-30T23:45:59.554Z,99192.50
2022-07-30T23:48:03.433Z,99196.91
2022-07-30T23:50:06.817Z,99193.69
2022-07-30T23:52:09.858Z,99194.50
2022-07-30T23:54:12.432Z,99202.84
2022-07-30T23:56:15.981Z,99194.50
2022-07-30T23:58:19.116Z,99188.94
